Nearby METAR Reports

 

KIAG - Niagara Falls, New York, USA
Distance from station: W 12mi, 20km
Updated: 03/25/2019 4:53am
Overcast
Overcast
 Wind from NE
Wind: NE 14 mph , 22 km/h
Temperature: 30°F , -1°C
Wind Chill: 19°F , -7°C
Dew Point: 23°F , -5°C
Humidity: 75%
Barometer: 1021.3 hPa
Clouds: Overcast
Visibility: 10 miles , 16 km
Cloud details: Partly cloudy 2100 ft
Overcast 7000 ft
2019/03/25 08:53 KIAG 250853Z AUTO 04012KT 10SM SCT021 OVC070 M01/M05 A3016 RMK AO2 SLP226 T10061050 53005 $
KBUF - Buffalo/Cheektow, New York, USA
Distance from station: S 13mi, 21km
Updated: 03/25/2019 5:07am
Overcast
Overcast
 Wind from NNE
Wind: NNE 10 mph , 17 km/h
Temperature: 32°F , 0°C
Wind Chill: 24°F , -4°C
Dew Point: 25°F , -4°C
Humidity: 75%
Barometer: 1021 hPa
Clouds: Overcast
Visibility: 10 miles , 16 km
Cloud details: Few Clouds 1500 ft
Overcast 6000 ft
2019/03/25 09:07 KBUF 250907Z 03009KT 10SM FEW015 OVC060 00/M04 A3015 RMK AO2 T00001039
 
KROC - Rochester, New York, USA
Distance from station: E 51mi, 82km
Updated: 03/25/2019 4:54am
Overcast
Overcast
 Wind from ENE
Wind: ENE 12 mph , 19 km/h
Temperature: 32°F , 0°C
Wind Chill: 23°F , -5°C
Dew Point: 25°F , -4°C
Humidity: 75%
Barometer: 1021.3 hPa
Clouds: Overcast
Visibility: 9 miles , 14 km
Cloud details: Partly cloudy 1800 ft
Mostly cloudy 3400 ft
Overcast 7000 ft
2019/03/25 08:54 KROC 250854Z 07010KT 9SM SCT018 BKN034 OVC070 00/M04 A3016 RMK AO2 SNE52 SLP222 P0000 60000 T00001044 51011
CYSN - St. Catharines A, Ontario, Canada
Distance from station: WNW 25mi, 40km
Updated: 03/24/2019 9:00pm
NOT Current
Mostly cloudy
Mostly cloudy
 Wind from W
Wind: W 6 mph , 9 km/h
Temperature: 41°F , 5°C
Wind Chill: 37°F , 3°C
Dew Point: 30°F , -1°C
Humidity: 66%
Barometer: 1017.9 hPa
Clouds: Mostly cloudy
Visibility: 15 miles , 24 km
Cloud details: Mostly cloudy 20000 ft
2019/03/25 01:00 CYSN 250100Z 28005KT 15SM BKN200 05/M01 A3006 RMK CI5 LAST STFD OBS / NEXT 251100 UTC SLP184
 
KOLE - Olean, New York, USA
Distance from station: SSE 63mi, 102km
Updated: 03/25/2019 5:35am
Overcast
Overcast
 Wind from NE
Wind: NE 7 mph , 11 km/h
Temperature: 28°F , -2°C
Wind Chill: 21°F , -6°C
Dew Point: 28°F , -2°C
Humidity: 100%
Barometer: 1017.6 hPa
Clouds: Overcast
Visibility: 10 miles , 16 km
Cloud details: Overcast 900 ft
2019/03/25 09:35 KOLE 250935Z AUTO 04006KT 10SM OVC009 M02/M02 A3005 RMK AO2
KJHW - Jamestown, New York, USA
Distance from station: SSW 74mi, 119km
Updated: 03/25/2019 4:56am
Overcast
Overcast
 Wind from NNE
Wind: NNE 10 mph , 17 km/h
Temperature: 30°F , -1°C
Wind Chill: 21°F , -6°C
Dew Point: 27°F , -3°C
Humidity: 86%
Barometer: 1017.9 hPa
Clouds: Overcast
Visibility: 10 miles , 16 km
Cloud details: Mostly cloudy 1200 ft
Mostly cloudy 5500 ft
Overcast 10000 ft
2019/03/25 08:56 KJHW 250856Z AUTO 02009KT 10SM BKN012 BKN055 OVC100 M01/M03 A3006 RMK AO2 SLP197 T10111028 55001 FZRANO
 
CWWZ - Port Weller (mar, Ontario, Canada
Distance from station: WNW 28mi, 45km
Updated: 03/25/2019 5:00am

 Wind from NE
Wind: NE 16 mph , 26 km/h
Temperature: 34°F , 1°C
Wind Chill: 24°F , -4°C
Dew Point: 21°F , -6°C
Humidity: 60%
2019/03/25 09:00 CWWZ 250900Z AUTO 04014KT 01/M06 RMK AO1 PK WND 03020/0807 SLP225 T00081062 51009
CWPC - Port Colborne(Au, Ontario, Canada
Distance from station: WSW 33mi, 53km
Updated: 03/25/2019 5:00am

 Wind from NNE
Wind: NNE 14 mph , 22 km/h
Temperature: 32°F , 0°C
Wind Chill: 22°F , -6°C
Dew Point: 25°F , -4°C
Humidity: 75%
2019/03/25 09:00 CWPC 250900Z AUTO 03012KT M00/M04 RMK AO1 SLP222 T10031039 53010
 
CXVN - Vineland (au8), Ontario, Canada
Distance from station: W 36mi, 58km
Updated: 03/25/2019 5:00am

 Wind from NE
Wind: NE 12 mph , 19 km/h, Gust: 17 mph , 28 km/h
Temperature: 34°F , 1°C
Wind Chill: 25°F , -4°C
Dew Point: 18°F , -8°C
Humidity: 51%
2019/03/25 09:00 CXVN 250900Z AUTO 04010G15KT 01/M08 RMK AO1 SOG 02 3010 PK WND 03019/0813 SLP219 T00051075
CYTZ - Toronto Il Vor, Ontario, Canada
Distance from station: NW 50mi, 81km
Updated: 03/25/2019 5:00am
Clear
Clear
 Wind from NE
Wind: NE 9 mph , 15 km/h
Temperature: 30°F , -1°C
Wind Chill: 22°F , -6°C
Dew Point: 12°F , -11°C
Humidity: 47%
Barometer: 1022.7 hPa
Clouds: Clear
Visibility: 9 miles , 14 km
2019/03/25 09:00 CYTZ 250900Z AUTO 04008KT 350V080 9SM CLR M01/M11 A3020 RMK SLP232
 
CXTO - Toronto City, Ontario, Canada
Distance from station: NW 52mi, 84km
Updated: 03/25/2019 5:00am

 
Temperature: 28°F , -2°C
Dew Point: 14°F , -10°C
Humidity: 55%
2019/03/25 09:00 CXTO 250900Z AUTO M02/M10 RMK AO1 SOG 01 3009 SLP226 T10171104
KDKK - Dunkirk, New York, USA
Distance from station: SW 52mi, 84km
Updated: 03/25/2019 4:53am
Overcast
Overcast
 Wind from NNE
Wind: NNE 12 mph , 19 km/h
Temperature: 30°F , -1°C
Wind Chill: 20°F , -7°C
Dew Point: 27°F , -3°C
Humidity: 86%
Barometer: 1020.7 hPa
Clouds: Overcast
Visibility: 10 miles , 16 km
Cloud details: Overcast 1900 ft
2019/03/25 08:53 KDKK 250853Z AUTO 03010KT 10SM OVC019 M01/M03 A3014 RMK AO2 SLP211 T10061028 53004
 
CYOO - Oshawa, Ontario, Canada
Distance from station: N 56mi, 90km
Updated: 03/25/2019 5:00am
Clear
Clear
 Wind from calm
Wind: Calm
Temperature: 23°F , -5°C
Dew Point: 19°F , -7°C
Humidity: 86%
Barometer: 1022.4 hPa
Clouds: Clear
Visibility: 9 miles , 14 km
2019/03/25 09:00 CYOO 250900Z AUTO 00000KT 9SM CLR M05/M07 A3019 RMK SLP230
CWWB - Burlington Piers, Ontario, Canada
Distance from station: WNW 56mi, 91km
Updated: 03/25/2019 5:00am

 Wind from N
Wind: N 9 mph , 15 km/h
Temperature: 30°F , -1°C
Wind Chill: 22°F , -6°C
Dew Point: 18°F , -8°C
Humidity: 59%
2019/03/25 09:00 CWWB 250900Z AUTO 36008KT M01/M08 RMK AO1 SLP228 T10051075 53011
 
CYYZ - Toronto/Pearson, Ontario, Canada
Distance from station: NW 60mi, 96km
Updated: 03/25/2019 5:00am
Few Clouds
Few Clouds
 Wind from N
Wind: N 7 mph , 11 km/h
Temperature: 25°F , -4°C
Wind Chill: 17°F , -8°C
Dew Point: 16°F , -9°C
Humidity: 69%
Barometer: 1022.4 hPa
Clouds: Few Clouds
Visibility: 15 miles , 24 km
Cloud details: Few Clouds 8000 ft
2019/03/25 09:00 CYYZ 250900Z 01006KT 15SM FEW080 M04/M09 A3019 RMK AC1 SLP230
CYKZ - Toronto Buttonvi, Ontario, Canada
Distance from station: NW 62mi, 99km
Updated: 01/03/2019 4:00am
NOT Current
Partly cloudy
Partly cloudy
 Wind from WSW
Wind: WSW 5 mph , 7 km/h
Temperature: 27°F , -3°C
Wind Chill: 21°F , -6°C
Dew Point: 23°F , -5°C
Humidity: 86%
Barometer: 1010.8 hPa
Clouds: Partly cloudy
Visibility: 15 miles , 24 km
Cloud details: Partly cloudy 4000 ft
2019/01/03 09:00 CYKZ 030900Z 25004KT 15SM SCT040 M03/M05 A2985 RMK SC3 LAST STFD OBS FAREWELL SLP118
 
CXHM - Hamilton Rbg Cs, Ontario, Canada
Distance from station: W 62mi, 100km
Updated: 03/25/2019 5:00am

 Wind from NE
Wind: NE 5 mph , 7 km/h
Temperature: 30°F , -1°C
Wind Chill: 25°F , -4°C
Dew Point: 18°F , -8°C
Humidity: 59%
2019/03/25 09:00 CXHM 250900Z AUTO 05004KT M01/M08 RMK AO1 SLP226 T10131081 53012
KDSV - Dansville, New York, USA
Distance from station: SE 62mi, 100km
Updated: 03/25/2019 4:54am
Overcast
Overcast
 Wind from N
Wind: N 7 mph , 11 km/h
Temperature: 34°F , 1°C
Wind Chill: 28°F , -2°C
Dew Point: 27°F , -3°C
Humidity: 75%
Barometer: 1020.7 hPa
Clouds: Overcast
Visibility: 10 miles , 16 km
Cloud details: Overcast 2300 ft
2019/03/25 08:54 KDSV 250854Z AUTO 35006KT 10SM OVC023 01/M03 A3014 RMK AO2 SLP218 T00111033 53008
 
CYHM - Hamilton Airport, Ontario, Canada
Distance from station: W 63mi, 101km
Updated: 03/25/2019 5:00am
Mostly cloudy
Mostly cloudy
 Wind from NNE
Wind: NNE 13 mph , 20 km/h, Gust: 18 mph , 30 km/h
Temperature: 28°F , -2°C
Wind Chill: 17°F , -8°C
Dew Point: 18°F , -8°C
Humidity: 64%
Barometer: 1021.3 hPa
Clouds: Mostly cloudy
Visibility: 15 miles , 24 km
Cloud details: Mostly cloudy 7000 ft
2019/03/25 09:00 CYHM 250900Z 03011G16KT 15SM BKN070 M02/M08 A3016 RMK AC7 SLP223
CWNC - Cobourg (mars), Ontario, Canada
Distance from station: NNE 63mi, 102km
Updated: 03/25/2019 5:00am

 Wind from NW
Wind: NW 2 mph , 4 km/h
Temperature: 25°F , -4°C
Dew Point: 18°F , -8°C
Humidity: 74%
2019/03/25 09:00 CWNC 250900Z AUTO 32002KT M04/M08 RMK AO1 SOG 01 1014 SLP223 T10381082